createdAt,value
2017-11-22T00:01:18.424Z,10.03
2017-11-22T00:03:46.799Z,10.67
2017-11-22T00:06:14.402Z,9.90
2017-11-22T00:08:42.023Z,10.80
2017-11-22T00:11:09.604Z,10.00
2017-11-22T00:13:37.210Z,10.47
2017-11-22T00:16:04.798Z,9.23
2017-11-22T00:18:32.362Z,9.80
2017-11-22T00:20:59.955Z,10.60
2017-11-22T00:23:27.615Z,10.33
2017-11-22T00:25:55.197Z,9.77
2017-11-22T00:28:22.788Z,9.83
2017-11-22T00:30:50.383Z,9.60
2017-11-22T00:33:18.840Z,9.67
2017-11-22T00:35:46.392Z,9.90
2017-11-22T00:38:13.988Z,10.40
2017-11-22T00:40:41.573Z,10.80
2017-11-22T00:43:09.174Z,9.57
2017-11-22T00:45:37.552Z,9.60
2017-11-22T00:48:05.903Z,10.87
2017-11-22T00:50:33.478Z,10.67
2017-11-22T00:53:01.822Z,10.20
2017-11-22T00:55:29.386Z,9.40
2017-11-22T00:57:57.067Z,9.43
2017-11-22T01:00:25.402Z,9.00
2017-11-22T01:02:52.988Z,9.37
2017-11-22T01:05:20.571Z,10.73
2017-11-22T01:07:48.150Z,9.40
2017-11-22T01:10:16.515Z,10.00
2017-11-22T01:12:44.889Z,10.07
2017-11-22T01:15:12.498Z,10.30
2017-11-22T01:17:40.075Z,9.73
2017-11-22T01:20:08.456Z,9.20
2017-11-22T01:22:36.048Z,9.07
2017-11-22T01:25:03.658Z,9.70
2017-11-22T01:27:31.233Z,9.43
2017-11-22T01:29:58.820Z,9.70
2017-11-22T01:32:26.394Z,10.27
2017-11-22T01:34:53.980Z,9.27
2017-11-22T01:37:22.331Z,9.27
2017-11-22T01:39:49.931Z,8.70
2017-11-22T01:42:17.514Z,9.60
2017-11-22T01:44:45.064Z,7.97
2017-11-22T01:47:12.670Z,9.27
2017-11-22T01:49:40.238Z,8.63
2017-11-22T01:52:07.854Z,8.90
2017-11-22T01:54:35.470Z,8.77
2017-11-22T01:57:03.795Z,9.33
2017-11-22T01:59:31.355Z,9.10
2017-11-22T02:01:59.036Z,9.63
2017-11-22T02:04:26.601Z,8.80
2017-11-22T02:06:54.182Z,8.10
2017-11-22T02:09:21.898Z,8.80
2017-11-22T02:11:49.478Z,9.13
2017-11-22T02:14:17.153Z,7.67
2017-11-22T02:16:44.738Z,8.40
2017-11-22T02:19:12.314Z,9.17
2017-11-22T02:21:40.667Z,8.20
2017-11-22T02:24:08.221Z,8.40
2017-11-22T02:26:35.931Z,8.93
2017-11-22T02:29:03.507Z,9.13
2017-11-22T02:31:31.060Z,8.70
2017-11-22T02:33:58.637Z,9.13
2017-11-22T02:36:26.200Z,8.83
2017-11-22T02:38:53.795Z,8.30
2017-11-22T02:41:21.364Z,8.80
2017-11-22T02:43:48.961Z,9.23
2017-11-22T02:46:16.517Z,7.77
2017-11-22T02:48:44.107Z,9.07
2017-11-22T02:51:11.685Z,8.70
2017-11-22T02:53:39.265Z,9.17
2017-11-22T02:56:06.879Z,8.90
2017-11-22T02:58:34.473Z,8.20
2017-11-22T03:01:02.035Z,7.23
2017-11-22T03:03:29.648Z,7.30
2017-11-22T03:05:57.247Z,7.07
2017-11-22T03:08:24.850Z,7.57
2017-11-22T03:10:53.199Z,8.30
2017-11-22T03:13:20.748Z,8.50
2017-11-22T03:15:48.332Z,7.97
2017-11-22T03:18:15.900Z,9.03
2017-11-22T03:20:43.483Z,7.53
2017-11-22T03:23:11.080Z,7.20
2017-11-22T03:25:38.678Z,7.50
2017-11-22T03:28:06.259Z,9.33
2017-11-22T03:30:34.603Z,7.83
2017-11-22T03:33:02.227Z,8.70
2017-11-22T03:35:29.952Z,7.90
2017-11-22T03:37:57.523Z,8.70
2017-11-22T03:40:25.877Z,7.97
2017-11-22T03:42:53.458Z,7.90
2017-11-22T03:45:21.831Z,8.90
2017-11-22T03:47:49.405Z,7.97
2017-11-22T03:50:32.628Z,9.60
2017-11-22T03:53:06.476Z,8.23
2017-11-22T03:55:34.103Z,8.20
2017-11-22T03:58:06.144Z,6.93
2017-11-22T04:00:34.712Z,7.47
2017-11-22T04:03:07.994Z,7.30
2017-11-22T04:05:38.410Z,6.87
2017-11-22T04:08:07.674Z,10.23
2017-11-22T04:10:38.823Z,6.93
2017-11-22T04:13:07.170Z,7.30
2017-11-22T04:15:34.762Z,7.00
2017-11-22T04:18:03.126Z,9.13
2017-11-22T04:20:40.623Z,8.20
2017-11-22T04:23:08.971Z,7.87
2017-11-22T04:25:36.598Z,9.30
2017-11-22T04:28:04.170Z,8.70
2017-11-22T04:30:31.747Z,10.57
2017-11-22T04:32:59.485Z,8.87
2017-11-22T04:35:27.108Z,9.30
2017-11-22T04:37:54.715Z,9.47
2017-11-22T04:40:22.401Z,8.87
2017-11-22T04:42:49.964Z,9.37
2017-11-22T04:45:17.542Z,8.90
2017-11-22T04:47:45.086Z,8.60
2017-11-22T04:50:12.683Z,7.70
2017-11-22T04:52:41.012Z,9.50
2017-11-22T04:55:08.591Z,8.60
2017-11-22T04:57:36.212Z,8.83
2017-11-22T05:00:03.760Z,9.57
2017-11-22T05:02:32.111Z,8.80
2017-11-22T05:04:59.721Z,8.67
2017-11-22T05:07:27.324Z,9.30
2017-11-22T05:09:54.890Z,8.90
2017-11-22T05:12:22.492Z,8.10
2017-11-22T05:14:50.110Z,10.23
2017-11-22T05:17:17.666Z,7.57
2017-11-22T05:19:45.250Z,8.57
2017-11-22T05:22:12.864Z,8.87
2017-11-22T05:24:40.468Z,7.80
2017-11-22T05:27:08.831Z,7.20
2017-11-22T05:29:36.469Z,7.67
2017-11-22T05:32:04.882Z,8.10
2017-11-22T05:34:32.499Z,7.90
2017-11-22T05:37:00.094Z,8.73
2017-11-22T05:39:27.651Z,7.50
2017-11-22T05:41:55.246Z,7.93
2017-11-22T05:44:23.602Z,7.63
2017-11-22T05:46:51.192Z,7.50
2017-11-22T05:49:19.547Z,7.77
2017-11-22T05:51:47.131Z,7.33
2017-11-22T05:54:15.475Z,8.63
2017-11-22T05:56:43.027Z,7.40
2017-11-22T05:59:10.686Z,7.57
2017-11-22T06:01:38.285Z,8.03
2017-11-22T06:04:05.878Z,8.40
2017-11-22T06:06:33.459Z,8.47
2017-11-22T06:09:01.031Z,8.73
2017-11-22T06:11:28.595Z,8.30
2017-11-22T06:13:56.204Z,8.40
2017-11-22T06:16:24.547Z,8.67
2017-11-22T06:18:52.120Z,7.77
2017-11-22T06:21:19.698Z,8.67
2017-11-22T06:23:48.117Z,9.90
2017-11-22T06:26:15.724Z,8.90
2017-11-22T06:28:43.282Z,10.00
2017-11-22T06:31:10.875Z,9.67
2017-11-22T06:33:38.483Z,9.10
2017-11-22T06:36:06.091Z,9.70
2017-11-22T06:38:34.472Z,9.20
2017-11-22T06:41:02.804Z,9.50
2017-11-22T06:43:30.410Z,10.13
2017-11-22T06:45:58.738Z,9.57
2017-11-22T06:48:26.317Z,10.32
2017-11-22T06:50:53.969Z,10.27
2017-11-22T06:53:21.559Z,10.30
2017-11-22T06:55:49.167Z,11.20
2017-11-22T06:58:16.794Z,11.43
2017-11-22T07:00:45.121Z,10.13
2017-11-22T07:03:12.770Z,10.63
2017-11-22T07:05:40.331Z,11.23
2017-11-22T07:08:07.940Z,10.80
2017-11-22T07:10:35.500Z,9.37
2017-11-22T07:13:03.374Z,10.70
2017-11-22T07:15:30.954Z,10.60
2017-11-22T07:17:59.299Z,11.77
2017-11-22T07:20:27.143Z,11.07
2017-11-22T07:22:54.697Z,10.37
2017-11-22T07:25:22.328Z,10.57
2017-11-22T07:27:49.907Z,10.70
2017-11-22T07:30:17.502Z,11.50
2017-11-22T07:32:45.135Z,10.93
2017-11-22T07:35:12.718Z,10.73
2017-11-22T07:37:46.098Z,10.93
2017-11-22T07:40:13.664Z,11.00
2017-11-22T07:42:41.364Z,10.73
2017-11-22T07:45:09.000Z,10.30
2017-11-22T07:47:36.641Z,10.30
2017-11-22T07:50:04.210Z,11.37
2017-11-22T07:52:31.792Z,11.77
2017-11-22T07:54:59.383Z,11.77
2017-11-22T07:57:27.796Z,12.10
2017-11-22T07:59:55.352Z,11.07
2017-11-22T08:02:22.970Z,10.50
2017-11-22T08:04:50.549Z,11.40
2017-11-22T08:07:18.967Z,11.17
2017-11-22T08:09:46.526Z,12.33
2017-11-22T08:12:14.142Z,12.13
2017-11-22T08:14:41.710Z,11.13
2017-11-22T08:17:10.143Z,12.10
2017-11-22T08:19:37.735Z,12.43
2017-11-22T08:22:05.319Z,11.07
2017-11-22T08:24:33.811Z,11.63
2017-11-22T08:27:01.347Z,12.03
2017-11-22T08:29:28.948Z,11.60
2017-11-22T08:31:56.530Z,12.07
2017-11-22T08:34:24.105Z,11.40
2017-11-22T08:36:51.714Z,13.00
2017-11-22T08:39:19.330Z,12.43
2017-11-22T08:41:49.686Z,13.07
2017-11-22T08:44:17.243Z,12.00
2017-11-22T08:46:45.596Z,11.97
2017-11-22T08:49:13.171Z,13.90
2017-11-22T08:51:40.791Z,11.80
2017-11-22T08:54:14.828Z,13.20
2017-11-22T08:56:47.940Z,11.60
2017-11-22T08:59:15.500Z,13.67
2017-11-22T09:01:43.097Z,13.20
2017-11-22T09:04:10.692Z,12.13
2017-11-22T09:06:39.875Z,13.50
2017-11-22T09:09:07.453Z,14.37
2017-11-22T09:11:35.015Z,13.13
2017-11-22T09:14:02.659Z,11.93
2017-11-22T09:16:30.229Z,13.23
2017-11-22T09:18:59.695Z,12.70
2017-11-22T09:21:28.042Z,12.70
2017-11-22T09:23:55.653Z,13.03
2017-11-22T09:26:23.219Z,13.57
2017-11-22T09:28:50.838Z,12.70
2017-11-22T09:31:24.019Z,12.50
2017-11-22T09:33:57.033Z,12.17
2017-11-22T09:36:28.158Z,12.07
2017-11-22T09:38:55.805Z,13.30
2017-11-22T09:41:23.406Z,12.07
2017-11-22T09:43:51.738Z,12.30
2017-11-22T09:46:19.319Z,11.77
2017-11-22T09:48:46.937Z,12.00
2017-11-22T09:51:15.149Z,12.80
2017-11-22T09:53:42.712Z,11.87
2017-11-22T09:56:10.310Z,12.70
2017-11-22T09:58:38.663Z,12.70
2017-11-22T10:01:06.278Z,12.07
2017-11-22T10:03:33.878Z,12.87
2017-11-22T10:06:01.456Z,12.30
2017-11-22T10:08:29.826Z,12.83
2017-11-22T10:10:57.420Z,13.20
2017-11-22T10:13:25.003Z,12.60
2017-11-22T10:15:52.608Z,12.73
2017-11-22T10:18:35.075Z,14.17
2017-11-22T10:21:02.640Z,13.13
2017-11-22T10:23:30.204Z,11.63
2017-11-22T10:25:58.528Z,12.80
2017-11-22T10:28:29.585Z,12.73
2017-11-22T10:30:58.204Z,12.80
2017-11-22T10:33:26.450Z,11.40
2017-11-22T10:35:54.141Z,12.20
2017-11-22T10:38:21.716Z,12.97
2017-11-22T10:40:49.345Z,11.57
2017-11-22T10:43:16.874Z,11.77
2017-11-22T10:45:44.450Z,11.90
2017-11-22T10:48:12.796Z,12.60
2017-11-22T10:50:40.355Z,11.30
2017-11-22T10:53:08.024Z,11.47
2017-11-22T10:55:35.572Z,10.23
2017-11-22T10:58:03.165Z,11.97
2017-11-22T11:00:31.499Z,11.77
2017-11-22T11:02:59.124Z,11.70
2017-11-22T11:05:27.460Z,12.23
2017-11-22T11:07:55.694Z,10.67
2017-11-22T11:10:23.268Z,11.70
2017-11-22T11:12:50.840Z,11.40
2017-11-22T11:15:18.456Z,11.50
2017-11-22T11:17:46.812Z,11.60
2017-11-22T11:20:14.404Z,12.43
2017-11-22T11:22:42.003Z,10.30
2017-11-22T11:25:16.069Z,16.37
2017-11-22T11:27:45.262Z,12.57
2017-11-22T11:30:17.067Z,17.60
2017-11-22T11:32:49.485Z,11.83
2017-11-22T11:35:17.365Z,11.00
2017-11-22T11:37:45.697Z,11.83
2017-11-22T11:40:18.410Z,13.87
2017-11-22T11:42:46.708Z,12.33
2017-11-22T11:45:15.045Z,13.37
2017-11-22T11:47:42.624Z,15.17
2017-11-22T11:50:10.248Z,13.40
2017-11-22T11:52:43.080Z,13.00
2017-11-22T11:55:10.809Z,13.40
2017-11-22T11:57:38.424Z,13.57
2017-11-22T12:00:06.768Z,16.40
2017-11-22T12:02:40.278Z,14.43
2017-11-22T12:05:08.883Z,13.30
2017-11-22T12:07:39.679Z,12.93
2017-11-22T12:10:07.296Z,12.40
2017-11-22T12:12:35.821Z,11.00
2017-11-22T12:15:03.418Z,10.40
2017-11-22T12:17:33.928Z,10.00
2017-11-22T12:20:01.497Z,11.23
2017-11-22T12:22:48.944Z,10.30
2017-11-22T12:25:17.306Z,12.90
2017-11-22T12:27:44.950Z,11.80
2017-11-22T12:30:12.555Z,9.87
2017-11-22T12:32:43.982Z,10.60
2017-11-22T12:35:11.593Z,10.93
2017-11-22T12:37:39.155Z,11.80
2017-11-22T12:40:07.283Z,10.07
2017-11-22T12:42:34.888Z,14.03
2017-11-22T12:45:02.476Z,8.80
2017-11-22T12:47:30.047Z,9.63
2017-11-22T12:49:58.444Z,8.83
2017-11-22T12:52:26.815Z,8.00
2017-11-22T12:54:54.424Z,8.50
2017-11-22T12:57:22.011Z,9.43
2017-11-22T12:59:49.898Z,9.60
2017-11-22T13:02:18.348Z,9.23
2017-11-22T13:04:49.106Z,10.17
2017-11-22T13:07:21.235Z,8.97
2017-11-22T13:09:48.931Z,8.37
2017-11-22T13:12:16.539Z,8.03
2017-11-22T13:14:44.900Z,7.63
2017-11-22T13:17:15.271Z,7.40
2017-11-22T13:19:42.969Z,7.93
2017-11-22T13:22:10.589Z,8.03
2017-11-22T13:24:38.858Z,8.17
2017-11-22T13:27:06.460Z,7.10
2017-11-22T13:29:34.044Z,7.40
2017-11-22T13:32:01.655Z,7.87
2017-11-22T13:34:35.864Z,9.13
2017-11-22T13:37:07.256Z,9.00
2017-11-22T13:39:35.358Z,10.70
2017-11-22T13:42:02.955Z,7.57
2017-11-22T13:44:30.547Z,9.20
2017-11-22T13:46:58.128Z,7.40
2017-11-22T13:49:25.735Z,8.40
2017-11-22T13:51:53.308Z,8.30
2017-11-22T13:54:20.910Z,7.93
2017-11-22T13:56:48.512Z,7.10
2017-11-22T13:59:18.032Z,10.37
2017-11-22T14:01:47.200Z,8.40
2017-11-22T14:04:14.860Z,9.27
2017-11-22T14:06:42.597Z,9.90
2017-11-22T14:09:15.201Z,14.10
2017-11-22T14:11:44.984Z,8.60
2017-11-22T14:14:13.573Z,11.17
2017-11-22T14:16:41.156Z,8.80
2017-11-22T14:19:08.735Z,8.60
2017-11-22T14:21:37.070Z,9.23
2017-11-22T14:24:04.695Z,9.60
2017-11-22T14:26:32.293Z,8.90
2017-11-22T14:29:00.660Z,7.10
2017-11-22T14:31:28.293Z,7.70
2017-11-22T14:33:55.887Z,8.30
2017-11-22T14:36:23.506Z,9.67
2017-11-22T14:38:51.072Z,7.57
2017-11-22T14:41:18.623Z,7.60
2017-11-22T14:43:46.421Z,8.33
2017-11-22T14:46:14.039Z,8.47
2017-11-22T14:48:42.406Z,8.00
2017-11-22T14:51:10.062Z,7.80
2017-11-22T14:53:38.783Z,14.20
2017-11-22T14:56:08.958Z,13.37
2017-11-22T14:58:36.586Z,7.60
2017-11-22T15:01:04.162Z,8.60
2017-11-22T15:03:31.716Z,8.03
2017-11-22T15:05:59.292Z,7.47
2017-11-22T15:08:26.879Z,7.33
2017-11-22T15:10:54.463Z,7.67
2017-11-22T15:13:22.787Z,8.00
2017-11-22T15:15:50.362Z,8.13
2017-11-22T15:18:17.924Z,8.00
2017-11-22T15:20:45.540Z,8.50
2017-11-22T15:23:13.879Z,8.60
2017-11-22T15:25:41.467Z,9.23
2017-11-22T15:28:09.782Z,10.13
2017-11-22T15:30:37.364Z,8.57
2017-11-22T15:33:04.952Z,8.37
2017-11-22T15:35:33.300Z,7.70
2017-11-22T15:38:00.884Z,10.10
2017-11-22T15:40:28.499Z,7.37
2017-11-22T15:42:56.047Z,8.73
2017-11-22T15:45:23.636Z,7.73
2017-11-22T15:47:51.259Z,9.37
2017-11-22T15:50:19.632Z,8.50
2017-11-22T15:52:47.984Z,8.10
2017-11-22T15:55:15.568Z,8.70
2017-11-22T15:57:43.203Z,9.17
2017-11-22T16:00:10.758Z,8.30
2017-11-22T16:02:38.370Z,7.80
2017-11-22T16:05:08.268Z,8.20
2017-11-22T16:07:36.697Z,8.60
2017-11-22T16:10:04.287Z,8.07
2017-11-22T16:12:31.904Z,8.10
2017-11-22T16:15:00.373Z,9.00
2017-11-22T16:17:27.956Z,7.70
2017-11-22T16:19:55.578Z,9.33
2017-11-22T16:22:23.190Z,8.30
2017-11-22T16:24:50.791Z,8.17
2017-11-22T16:27:19.371Z,6.50
2017-11-22T16:29:46.956Z,7.93
2017-11-22T16:32:14.514Z,7.97
2017-11-22T16:34:42.105Z,8.00
2017-11-22T16:37:09.703Z,7.73
2017-11-22T16:39:37.282Z,8.00
2017-11-22T16:42:05.661Z,8.27
2017-11-22T16:44:34.041Z,8.80
2017-11-22T16:47:02.399Z,8.50
2017-11-22T16:49:29.966Z,7.83
2017-11-22T16:51:57.567Z,8.63
2017-11-22T16:54:25.165Z,7.87
2017-11-22T16:56:52.751Z,8.00
2017-11-22T16:59:20.315Z,8.40
2017-11-22T17:01:47.895Z,8.50
2017-11-22T17:04:16.267Z,8.17
2017-11-22T17:06:44.619Z,7.77
2017-11-22T17:09:12.214Z,8.00
2017-11-22T17:11:40.550Z,7.20
2017-11-22T17:14:08.129Z,8.63
2017-11-22T17:16:35.710Z,7.10
2017-11-22T17:19:04.077Z,7.47
2017-11-22T17:21:31.681Z,7.93
2017-11-22T17:23:59.255Z,7.83
2017-11-22T17:26:26.846Z,7.67
2017-11-22T17:28:54.444Z,8.33
2017-11-22T17:31:22.101Z,7.27
2017-11-22T17:33:50.448Z,7.80
2017-11-22T17:36:18.064Z,6.60
2017-11-22T17:38:45.626Z,8.70
2017-11-22T17:41:13.953Z,7.30
2017-11-22T17:43:41.565Z,7.73
2017-11-22T17:46:09.160Z,7.10
2017-11-22T17:48:36.776Z,7.17
2017-11-22T17:51:04.366Z,7.63
2017-11-22T17:53:31.979Z,7.60
2017-11-22T17:55:59.733Z,7.80
2017-11-22T17:58:27.388Z,6.93
2017-11-22T18:00:54.986Z,6.97
2017-11-22T18:03:22.755Z,6.23
2017-11-22T18:05:50.363Z,7.47
2017-11-22T18:08:17.999Z,7.30
2017-11-22T18:10:45.661Z,6.67
2017-11-22T18:13:13.679Z,6.30
2017-11-22T18:15:41.366Z,6.87
2017-11-22T18:18:09.739Z,7.10
2017-11-22T18:20:38.089Z,6.50
2017-11-22T18:23:05.708Z,6.50
2017-11-22T18:25:33.330Z,6.40
2017-11-22T18:28:00.917Z,7.60
2017-11-22T18:30:29.256Z,6.40
2017-11-22T18:32:57.365Z,5.57
2017-11-22T18:35:25.720Z,6.50
2017-11-22T18:37:53.297Z,8.13
2017-11-22T18:40:21.663Z,5.67
2017-11-22T18:42:49.268Z,6.33
2017-11-22T18:45:16.866Z,6.30
2017-11-22T18:47:44.491Z,5.40
2017-11-22T18:50:12.838Z,5.50
2017-11-22T18:52:41.184Z,5.50
2017-11-22T18:55:08.867Z,5.27
2017-11-22T18:57:36.535Z,5.20
2017-11-22T19:00:04.956Z,5.30
2017-11-22T19:02:32.544Z,5.70
2017-11-22T19:05:00.139Z,6.17
2017-11-22T19:07:28.508Z,4.80
2017-11-22T19:09:56.134Z,6.13
2017-11-22T19:12:24.096Z,5.97
2017-11-22T19:14:51.720Z,6.00
2017-11-22T19:17:19.307Z,4.43
2017-11-22T19:19:46.896Z,4.77
2017-11-22T19:22:14.518Z,4.90
2017-11-22T19:24:42.893Z,5.40
2017-11-22T19:27:11.294Z,6.40
2017-11-22T19:29:39.797Z,5.20
2017-11-22T19:32:07.392Z,6.37
2017-11-22T19:34:34.966Z,5.67
2017-11-22T19:37:03.690Z,5.00
2017-11-22T19:39:31.304Z,5.60
2017-11-22T19:41:58.922Z,5.33
2017-11-22T19:44:26.590Z,6.27
2017-11-22T19:46:54.245Z,5.40
2017-11-22T19:49:21.873Z,4.20
2017-11-22T19:51:50.217Z,4.90
2017-11-22T19:54:17.856Z,4.60
2017-11-22T19:56:45.481Z,5.43
2017-11-22T19:59:13.913Z,4.03
2017-11-22T20:01:41.646Z,6.90
2017-11-22T20:04:09.298Z,5.33
2017-11-22T20:06:36.923Z,4.67
2017-11-22T20:09:04.474Z,5.20
2017-11-22T20:11:32.064Z,4.97
2017-11-22T20:14:00.473Z,4.37
2017-11-22T20:16:28.125Z,5.00
2017-11-22T20:18:55.771Z,3.93
2017-11-22T20:21:24.257Z,4.80
2017-11-22T20:23:51.831Z,4.60
2017-11-22T20:26:19.429Z,4.33
2017-11-22T20:28:47.017Z,4.07
2017-11-22T20:31:14.899Z,4.30
2017-11-22T20:33:43.266Z,4.47
2017-11-22T20:36:11.720Z,4.80
2017-11-22T20:38:39.387Z,5.37
2017-11-22T20:41:07.067Z,4.90
2017-11-22T20:43:34.750Z,5.17
2017-11-22T20:46:03.212Z,5.30
2017-11-22T20:48:30.821Z,4.90
2017-11-22T20:50:59.527Z,5.83
2017-11-22T20:53:27.252Z,5.20
2017-11-22T20:55:55.719Z,5.23
2017-11-22T20:58:24.215Z,6.13
2017-11-22T21:00:51.787Z,5.60
2017-11-22T21:03:19.520Z,5.27
2017-11-22T21:05:47.265Z,5.03
2017-11-22T21:08:14.967Z,7.43
2017-11-22T21:10:43.354Z,5.03
2017-11-22T21:13:11.860Z,5.37
2017-11-22T21:15:40.251Z,7.80
2017-11-22T21:18:07.864Z,8.37
2017-11-22T21:20:35.530Z,5.80
2017-11-22T21:23:04.017Z,5.00
2017-11-22T21:25:33.664Z,6.07
2017-11-22T21:28:01.277Z,5.17
2017-11-22T21:30:28.874Z,5.40
2017-11-22T21:32:56.466Z,6.70
2017-11-22T21:35:24.102Z,5.67
2017-11-22T21:37:51.741Z,4.43
2017-11-22T21:40:19.494Z,4.33
2017-11-22T21:42:47.941Z,4.57
2017-11-22T21:45:15.527Z,6.20
2017-11-22T21:47:43.981Z,5.13
2017-11-22T21:50:11.656Z,7.40
2017-11-22T21:52:39.312Z,6.70
2017-11-22T21:55:06.930Z,4.50
2017-11-22T21:57:35.241Z,5.07
2017-11-22T22:00:03.449Z,6.07
2017-11-22T22:02:31.083Z,4.90
2017-11-22T22:05:00.414Z,5.70
2017-11-22T22:07:28.023Z,5.50
2017-11-22T22:09:56.221Z,5.00
2017-11-22T22:12:24.485Z,6.57
2017-11-22T22:14:53.495Z,5.20
2017-11-22T22:17:21.400Z,4.10
2017-11-22T22:19:49.110Z,4.97
2017-11-22T22:22:17.503Z,5.10
2017-11-22T22:24:45.230Z,4.57
2017-11-22T22:27:12.843Z,4.50
2017-11-22T22:29:40.424Z,5.70
2017-11-22T22:32:08.571Z,4.77
2017-11-22T22:34:36.351Z,4.57
2017-11-22T22:37:03.954Z,4.37
2017-11-22T22:39:31.531Z,4.17
2017-11-22T22:41:59.130Z,4.50
2017-11-22T22:44:26.717Z,5.00
2017-11-22T22:46:55.084Z,3.97
2017-11-22T22:49:22.670Z,4.10
2017-11-22T22:51:50.235Z,4.50
2017-11-22T22:54:18.068Z,4.53
2017-11-22T22:56:45.660Z,4.70
2017-11-22T22:59:14.028Z,4.30
2017-11-22T23:01:42.644Z,3.83
2017-11-22T23:04:10.339Z,4.83
2017-11-22T23:06:37.916Z,3.63
2017-11-22T23:09:05.936Z,3.90
2017-11-22T23:11:33.523Z,3.40
2017-11-22T23:14:01.139Z,4.50
2017-11-22T23:16:29.495Z,3.97
2017-11-22T23:18:58.332Z,4.50
2017-11-22T23:21:26.723Z,4.00
2017-11-22T23:23:54.390Z,3.93
2017-11-22T23:26:22.731Z,3.90
2017-11-22T23:28:51.092Z,3.70
2017-11-22T23:31:18.671Z,4.17
2017-11-22T23:33:47.046Z,3.57
2017-11-22T23:36:15.634Z,4.00
2017-11-22T23:38:43.971Z,4.73
2017-11-22T23:41:11.550Z,3.57
2017-11-22T23:43:39.148Z,3.67
2017-11-22T23:46:06.740Z,4.30
2017-11-22T23:48:34.324Z,3.80
2017-11-22T23:51:01.943Z,4.00
2017-11-22T23:53:29.518Z,3.30
2017-11-22T23:55:57.116Z,4.43
2017-11-22T23:58:24.683Z,3.73
